sensor_id;sensor_type;location;lat;lon;timestamp;temperature;humidity
5128;DHT22;2582;48.770;9.190;2022-11-15T00:01:35;10.60;99.90
5128;DHT22;2582;48.770;9.190;2022-11-15T00:04:03;10.70;99.90
5128;DHT22;2582;48.770;9.190;2022-11-15T00:06:29;10.70;99.90
5128;DHT22;2582;48.770;9.190;2022-11-15T00:08:57;10.60;99.90
5128;DHT22;2582;48.770;9.190;2022-11-15T00:11:22;10.70;99.90
5128;DHT22;2582;48.770;9.190;2022-11-15T00:13:48;10.70;99.90
5128;DHT22;2582;48.770;9.190;2022-11-15T00:16:14;10.70;99.90
5128;DHT22;2582;48.770;9.190;2022-11-15T00:18:39;10.70;99.90
5128;DHT22;2582;48.770;9.190;2022-11-15T00:21:11;10.60;99.90
5128;DHT22;2582;48.770;9.190;2022-11-15T00:23:37;10.60;99.90
5128;DHT22;2582;48.770;9.190;2022-11-15T00:26:03;10.60;99.90
5128;DHT22;2582;48.770;9.190;2022-11-15T00:28:29;10.60;99.90
5128;DHT22;2582;48.770;9.190;2022-11-15T00:31:00;10.60;99.90
5128;DHT22;2582;48.770;9.190;2022-11-15T00:33:26;10.50;99.90
5128;DHT22;2582;48.770;9.190;2022-11-15T00:35:52;10.60;99.90
5128;DHT22;2582;48.770;9.190;2022-11-15T00:38:17;10.70;99.90
5128;DHT22;2582;48.770;9.190;2022-11-15T00:40:43;10.70;99.90
5128;DHT22;2582;48.770;9.190;2022-11-15T00:43:08;10.70;99.90
5128;DHT22;2582;48.770;9.190;2022-11-15T00:45:34;10.70;99.90
5128;DHT22;2582;48.770;9.190;2022-11-15T00:47:59;10.70;99.90
5128;DHT22;2582;48.770;9.190;2022-11-15T00:50:25;10.70;99.90
5128;DHT22;2582;48.770;9.190;2022-11-15T00:52:50;10.70;99.90
5128;DHT22;2582;48.770;9.190;2022-11-15T00:55:18;10.60;99.90
5128;DHT22;2582;48.770;9.190;2022-11-15T00:57:44;10.50;99.90
5128;DHT22;2582;48.770;9.190;2022-11-15T01:00:10;10.40;99.90
5128;DHT22;2582;48.770;9.190;2022-11-15T01:02:35;10.40;99.90
5128;DHT22;2582;48.770;9.190;2022-11-15T01:05:01;10.50;99.90
5128;DHT22;2582;48.770;9.190;2022-11-15T01:07:27;10.50;99.90
5128;DHT22;2582;48.770;9.190;2022-11-15T01:09:52;10.50;99.90
5128;DHT22;2582;48.770;9.190;2022-11-15T01:12:18;10.50;99.90
5128;DHT22;2582;48.770;9.190;2022-11-15T01:14:43;10.50;99.90
5128;DHT22;2582;48.770;9.190;2022-11-15T01:17:09;10.50;99.90
5128;DHT22;2582;48.770;9.190;2022-11-15T01:19:34;10.40;99.90
5128;DHT22;2582;48.770;9.190;2022-11-15T01:22:00;10.40;99.90
5128;DHT22;2582;48.770;9.190;2022-11-15T01:24:26;10.30;99.90
5128;DHT22;2582;48.770;9.190;2022-11-15T01:26:51;10.20;99.90
5128;DHT22;2582;48.770;9.190;2022-11-15T01:29:17;10.10;99.90
5128;DHT22;2582;48.770;9.190;2022-11-15T01:31:42;10.10;99.90
5128;DHT22;2582;48.770;9.190;2022-11-15T01:34:08;10.00;99.90
5128;DHT22;2582;48.770;9.190;2022-11-15T01:36:33;9.90;99.90
5128;DHT22;2582;48.770;9.190;2022-11-15T01:38:59;9.90;99.90
5128;DHT22;2582;48.770;9.190;2022-11-15T01:41:27;9.90;99.90
5128;DHT22;2582;48.770;9.190;2022-11-15T01:43:55;9.70;99.90
5128;DHT22;2582;48.770;9.190;2022-11-15T01:48:47;9.70;99.90
5128;DHT22;2582;48.770;9.190;2022-11-15T01:51:14;9.70;99.90
5128;DHT22;2582;48.770;9.190;2022-11-15T01:53:44;9.60;99.90
5128;DHT22;2582;48.770;9.190;2022-11-15T01:56:14;9.60;99.90
5128;DHT22;2582;48.770;9.190;2022-11-15T01:58:41;9.60;99.90
5128;DHT22;2582;48.770;9.190;2022-11-15T02:01:08;9.50;99.90
5128;DHT22;2582;48.770;9.190;2022-11-15T02:04:04;9.50;99.90
5128;DHT22;2582;48.770;9.190;2022-11-15T02:06:27;9.40;99.90
5128;DHT22;2582;48.770;9.190;2022-11-15T02:08:53;9.40;99.90
5128;DHT22;2582;48.770;9.190;2022-11-15T02:11:20;9.50;99.90
5128;DHT22;2582;48.770;9.190;2022-11-15T02:13:45;9.50;99.90
5128;DHT22;2582;48.770;9.190;2022-11-15T02:18:58;9.70;99.90
5128;DHT22;2582;48.770;9.190;2022-11-15T02:24:34;9.50;99.90
5128;DHT22;2582;48.770;9.190;2022-11-15T02:27:10;9.50;99.90
5128;DHT22;2582;48.770;9.190;2022-11-15T02:30:00;9.50;99.90
5128;DHT22;2582;48.770;9.190;2022-11-15T02:32:48;9.40;99.90
5128;DHT22;2582;48.770;9.190;2022-11-15T02:37:55;9.40;99.90
5128;DHT22;2582;48.770;9.190;2022-11-15T02:41:22;9.60;99.90
5128;DHT22;2582;48.770;9.190;2022-11-15T02:43:50;9.40;99.90
5128;DHT22;2582;48.770;9.190;2022-11-15T02:46:40;9.50;99.90
5128;DHT22;2582;48.770;9.190;2022-11-15T02:49:29;9.60;99.90
5128;DHT22;2582;48.770;9.190;2022-11-15T02:51:56;9.60;99.90
5128;DHT22;2582;48.770;9.190;2022-11-15T02:54:25;9.60;99.90
5128;DHT22;2582;48.770;9.190;2022-11-15T02:56:58;9.70;99.90
5128;DHT22;2582;48.770;9.190;2022-11-15T03:02:12;9.60;99.90
5128;DHT22;2582;48.770;9.190;2022-11-15T03:04:48;9.70;99.90
5128;DHT22;2582;48.770;9.190;2022-11-15T03:07:50;9.70;99.90
5128;DHT22;2582;48.770;9.190;2022-11-15T03:12:54;9.50;99.90
5128;DHT22;2582;48.770;9.190;2022-11-15T03:15:32;9.50;99.90
5128;DHT22;2582;48.770;9.190;2022-11-15T03:18:04;9.50;99.90
5128;DHT22;2582;48.770;9.190;2022-11-15T03:20:32;9.50;99.90
5128;DHT22;2582;48.770;9.190;2022-11-15T03:23:04;9.50;99.90
5128;DHT22;2582;48.770;9.190;2022-11-15T03:25:31;9.50;99.90
5128;DHT22;2582;48.770;9.190;2022-11-15T03:28:00;9.40;99.90
5128;DHT22;2582;48.770;9.190;2022-11-15T03:30:28;9.40;99.90
5128;DHT22;2582;48.770;9.190;2022-11-15T03:32:56;9.40;99.90
5128;DHT22;2582;48.770;9.190;2022-11-15T03:35:28;9.50;99.90
5128;DHT22;2582;48.770;9.190;2022-11-15T03:40:58;9.40;99.90
5128;DHT22;2582;48.770;9.190;2022-11-15T03:46:02;9.50;99.90
5128;DHT22;2582;48.770;9.190;2022-11-15T03:48:41;9.40;99.90
5128;DHT22;2582;48.770;9.190;2022-11-15T03:51:09;9.40;99.90
5128;DHT22;2582;48.770;9.190;2022-11-15T03:53:34;9.50;99.90
5128;DHT22;2582;48.770;9.190;2022-11-15T03:56:00;9.50;99.90
5128;DHT22;2582;48.770;9.190;2022-11-15T03:58:25;9.40;99.90
5128;DHT22;2582;48.770;9.190;2022-11-15T04:00:51;9.40;99.90
5128;DHT22;2582;48.770;9.190;2022-11-15T04:03:17;9.30;99.90
5128;DHT22;2582;48.770;9.190;2022-11-15T04:05:42;9.40;99.90
5128;DHT22;2582;48.770;9.190;2022-11-15T04:08:08;9.30;99.90
5128;DHT22;2582;48.770;9.190;2022-11-15T04:10:33;9.50;99.90
5128;DHT22;2582;48.770;9.190;2022-11-15T04:12:59;9.60;99.90
5128;DHT22;2582;48.770;9.190;2022-11-15T04:15:25;9.60;99.90
5128;DHT22;2582;48.770;9.190;2022-11-15T04:17:53;9.60;99.90
5128;DHT22;2582;48.770;9.190;2022-11-15T04:20:24;9.70;99.90
5128;DHT22;2582;48.770;9.190;2022-11-15T04:23:11;9.50;99.90
5128;DHT22;2582;48.770;9.190;2022-11-15T04:25:57;9.60;99.90
5128;DHT22;2582;48.770;9.190;2022-11-15T04:28:23;9.70;99.90
5128;DHT22;2582;48.770;9.190;2022-11-15T04:30:49;9.60;99.90
5128;DHT22;2582;48.770;9.190;2022-11-15T04:33:15;9.60;99.90
5128;DHT22;2582;48.770;9.190;2022-11-15T04:35:41;9.70;99.90
5128;DHT22;2582;48.770;9.190;2022-11-15T04:38:08;9.70;99.90
5128;DHT22;2582;48.770;9.190;2022-11-15T04:40:35;9.70;99.90
5128;DHT22;2582;48.770;9.190;2022-11-15T04:43:00;9.60;99.90
5128;DHT22;2582;48.770;9.190;2022-11-15T04:45:26;9.60;99.90
5128;DHT22;2582;48.770;9.190;2022-11-15T04:47:51;9.40;99.90
5128;DHT22;2582;48.770;9.190;2022-11-15T04:50:17;9.50;99.90
5128;DHT22;2582;48.770;9.190;2022-11-15T04:52:50;9.50;99.90
5128;DHT22;2582;48.770;9.190;2022-11-15T04:55:16;9.50;99.90
5128;DHT22;2582;48.770;9.190;2022-11-15T04:57:41;9.50;99.90
5128;DHT22;2582;48.770;9.190;2022-11-15T05:00:10;9.40;99.90
5128;DHT22;2582;48.770;9.190;2022-11-15T05:02:36;9.40;99.90
5128;DHT22;2582;48.770;9.190;2022-11-15T05:05:20;9.30;99.90
5128;DHT22;2582;48.770;9.190;2022-11-15T05:07:45;9.30;99.90
5128;DHT22;2582;48.770;9.190;2022-11-15T05:10:11;9.30;99.90
5128;DHT22;2582;48.770;9.190;2022-11-15T05:12:37;9.30;99.90
5128;DHT22;2582;48.770;9.190;2022-11-15T05:15:03;9.20;99.90
5128;DHT22;2582;48.770;9.190;2022-11-15T05:17:28;9.20;99.90
5128;DHT22;2582;48.770;9.190;2022-11-15T05:19:54;9.20;99.90
5128;DHT22;2582;48.770;9.190;2022-11-15T05:22:20;9.20;99.90
5128;DHT22;2582;48.770;9.190;2022-11-15T05:24:45;9.10;99.90
5128;DHT22;2582;48.770;9.190;2022-11-15T05:27:11;9.20;99.90
5128;DHT22;2582;48.770;9.190;2022-11-15T05:29:36;9.20;99.90
5128;DHT22;2582;48.770;9.190;2022-11-15T05:32:04;9.10;99.90
5128;DHT22;2582;48.770;9.190;2022-11-15T05:34:30;9.10;99.90
5128;DHT22;2582;48.770;9.190;2022-11-15T05:36:56;9.10;99.90
5128;DHT22;2582;48.770;9.190;2022-11-15T05:39:22;9.20;99.90
5128;DHT22;2582;48.770;9.190;2022-11-15T05:41:53;9.30;99.90
5128;DHT22;2582;48.770;9.190;2022-11-15T05:44:22;9.10;99.90
5128;DHT22;2582;48.770;9.190;2022-11-15T05:46:49;9.20;99.90
5128;DHT22;2582;48.770;9.190;2022-11-15T05:49:18;9.40;99.90
5128;DHT22;2582;48.770;9.190;2022-11-15T05:51:47;9.40;99.90
5128;DHT22;2582;48.770;9.190;2022-11-15T05:54:14;9.40;99.90
5128;DHT22;2582;48.770;9.190;2022-11-15T05:56:40;9.40;99.90
5128;DHT22;2582;48.770;9.190;2022-11-15T05:59:07;9.40;99.90
5128;DHT22;2582;48.770;9.190;2022-11-15T06:01:33;9.40;99.90
5128;DHT22;2582;48.770;9.190;2022-11-15T06:03:59;9.50;99.90
5128;DHT22;2582;48.770;9.190;2022-11-15T06:06:24;9.40;99.90
5128;DHT22;2582;48.770;9.190;2022-11-15T06:08:50;9.40;99.90
5128;DHT22;2582;48.770;9.190;2022-11-15T06:11:15;9.40;99.90
5128;DHT22;2582;48.770;9.190;2022-11-15T06:13:41;9.40;99.90
5128;DHT22;2582;48.770;9.190;2022-11-15T06:16:07;9.30;99.90
5128;DHT22;2582;48.770;9.190;2022-11-15T06:18:33;9.40;99.90
5128;DHT22;2582;48.770;9.190;2022-11-15T06:20:59;9.40;99.90
5128;DHT22;2582;48.770;9.190;2022-11-15T06:23:25;9.50;99.90
5128;DHT22;2582;48.770;9.190;2022-11-15T06:25:51;9.50;99.90
5128;DHT22;2582;48.770;9.190;2022-11-15T06:28:16;9.50;99.90
5128;DHT22;2582;48.770;9.190;2022-11-15T06:30:42;9.40;99.90
5128;DHT22;2582;48.770;9.190;2022-11-15T06:33:07;9.40;99.90
5128;DHT22;2582;48.770;9.190;2022-11-15T06:35:35;9.50;99.90
5128;DHT22;2582;48.770;9.190;2022-11-15T06:38:08;9.50;99.90
5128;DHT22;2582;48.770;9.190;2022-11-15T06:40:35;9.50;99.90
5128;DHT22;2582;48.770;9.190;2022-11-15T06:43:01;9.50;99.90
5128;DHT22;2582;48.770;9.190;2022-11-15T06:45:27;9.60;99.90
5128;DHT22;2582;48.770;9.190;2022-11-15T06:47:53;9.60;99.90
5128;DHT22;2582;48.770;9.190;2022-11-15T06:50:19;9.70;99.90
5128;DHT22;2582;48.770;9.190;2022-11-15T06:52:44;9.70;99.90
5128;DHT22;2582;48.770;9.190;2022-11-15T06:55:10;9.70;99.90
5128;DHT22;2582;48.770;9.190;2022-11-15T06:57:36;9.80;99.90
5128;DHT22;2582;48.770;9.190;2022-11-15T07:00:04;9.70;99.90
5128;DHT22;2582;48.770;9.190;2022-11-15T07:02:30;9.80;99.90
5128;DHT22;2582;48.770;9.190;2022-11-15T07:04:56;9.90;99.90
5128;DHT22;2582;48.770;9.190;2022-11-15T07:07:21;10.00;99.90
5128;DHT22;2582;48.770;9.190;2022-11-15T07:09:47;10.00;99.90
5128;DHT22;2582;48.770;9.190;2022-11-15T07:12:13;10.10;99.90
5128;DHT22;2582;48.770;9.190;2022-11-15T07:14:38;10.10;99.90
5128;DHT22;2582;48.770;9.190;2022-11-15T07:17:04;10.20;99.90
5128;DHT22;2582;48.770;9.190;2022-11-15T07:19:30;10.20;99.90
5128;DHT22;2582;48.770;9.190;2022-11-15T07:21:56;10.30;99.90
5128;DHT22;2582;48.770;9.190;2022-11-15T07:24:22;10.40;99.90
5128;DHT22;2582;48.770;9.190;2022-11-15T07:26:47;10.40;99.90
5128;DHT22;2582;48.770;9.190;2022-11-15T07:29:13;10.50;99.90
5128;DHT22;2582;48.770;9.190;2022-11-15T07:31:38;10.60;99.90
5128;DHT22;2582;48.770;9.190;2022-11-15T07:34:04;10.70;99.90
5128;DHT22;2582;48.770;9.190;2022-11-15T07:36:29;10.80;99.90
5128;DHT22;2582;48.770;9.190;2022-11-15T07:38:55;10.90;99.90
5128;DHT22;2582;48.770;9.190;2022-11-15T07:41:21;11.00;99.90
5128;DHT22;2582;48.770;9.190;2022-11-15T07:43:46;11.20;99.90
5128;DHT22;2582;48.770;9.190;2022-11-15T07:46:12;11.40;99.90
5128;DHT22;2582;48.770;9.190;2022-11-15T07:48:38;11.60;99.90
5128;DHT22;2582;48.770;9.190;2022-11-15T07:51:06;11.80;99.90
5128;DHT22;2582;48.770;9.190;2022-11-15T07:53:32;12.00;99.90
5128;DHT22;2582;48.770;9.190;2022-11-15T07:55:57;12.10;99.90
5128;DHT22;2582;48.770;9.190;2022-11-15T07:58:23;12.30;99.90
5128;DHT22;2582;48.770;9.190;2022-11-15T08:00:49;11.90;99.90
5128;DHT22;2582;48.770;9.190;2022-11-15T08:03:16;11.90;99.90
5128;DHT22;2582;48.770;9.190;2022-11-15T08:05:42;12.20;99.90
5128;DHT22;2582;48.770;9.190;2022-11-15T08:08:10;12.50;99.90
5128;DHT22;2582;48.770;9.190;2022-11-15T08:10:36;12.60;99.90
5128;DHT22;2582;48.770;9.190;2022-11-15T08:13:04;12.80;99.90
5128;DHT22;2582;48.770;9.190;2022-11-15T08:15:31;12.90;99.90
5128;DHT22;2582;48.770;9.190;2022-11-15T08:17:58;12.90;99.90
5128;DHT22;2582;48.770;9.190;2022-11-15T08:20:25;12.80;99.90
5128;DHT22;2582;48.770;9.190;2022-11-15T08:22:51;12.60;99.90
5128;DHT22;2582;48.770;9.190;2022-11-15T08:25:16;12.70;99.90
5128;DHT22;2582;48.770;9.190;2022-11-15T08:27:42;12.70;99.90
5128;DHT22;2582;48.770;9.190;2022-11-15T08:30:08;12.50;99.90
5128;DHT22;2582;48.770;9.190;2022-11-15T08:32:34;12.50;99.90
5128;DHT22;2582;48.770;9.190;2022-11-15T08:34:59;12.60;99.90
5128;DHT22;2582;48.770;9.190;2022-11-15T08:37:25;12.60;99.90
5128;DHT22;2582;48.770;9.190;2022-11-15T08:39:50;12.70;99.90
5128;DHT22;2582;48.770;9.190;2022-11-15T08:42:16;12.70;99.90
5128;DHT22;2582;48.770;9.190;2022-11-15T08:44:42;12.70;99.90
5128;DHT22;2582;48.770;9.190;2022-11-15T08:47:08;12.80;99.90
5128;DHT22;2582;48.770;9.190;2022-11-15T08:49:36;12.80;99.90
5128;DHT22;2582;48.770;9.190;2022-11-15T08:52:01;13.00;99.90
5128;DHT22;2582;48.770;9.190;2022-11-15T08:54:27;13.10;99.90
5128;DHT22;2582;48.770;9.190;2022-11-15T08:56:52;13.20;99.90
5128;DHT22;2582;48.770;9.190;2022-11-15T08:59:18;13.30;99.90
5128;DHT22;2582;48.770;9.190;2022-11-15T09:01:44;13.50;99.90
5128;DHT22;2582;48.770;9.190;2022-11-15T09:04:09;13.60;99.90
5128;DHT22;2582;48.770;9.190;2022-11-15T09:06:35;13.70;99.90
5128;DHT22;2582;48.770;9.190;2022-11-15T09:09:01;13.70;99.90
5128;DHT22;2582;48.770;9.190;2022-11-15T09:11:27;13.60;99.90
5128;DHT22;2582;48.770;9.190;2022-11-15T09:13:53;13.50;99.90
5128;DHT22;2582;48.770;9.190;2022-11-15T09:16:18;13.30;99.90
5128;DHT22;2582;48.770;9.190;2022-11-15T09:18:44;13.30;99.90
5128;DHT22;2582;48.770;9.190;2022-11-15T09:21:09;13.50;99.90
5128;DHT22;2582;48.770;9.190;2022-11-15T09:23:35;14.00;99.90
5128;DHT22;2582;48.770;9.190;2022-11-15T09:26:03;14.50;99.90
5128;DHT22;2582;48.770;9.190;2022-11-15T09:28:29;14.80;99.90
5128;DHT22;2582;48.770;9.190;2022-11-15T09:30:59;15.00;99.90
5128;DHT22;2582;48.770;9.190;2022-11-15T09:33:26;15.20;99.90
5128;DHT22;2582;48.770;9.190;2022-11-15T09:35:51;15.00;99.90
5128;DHT22;2582;48.770;9.190;2022-11-15T09:38:17;14.70;99.90
5128;DHT22;2582;48.770;9.190;2022-11-15T09:40:43;14.70;99.90
5128;DHT22;2582;48.770;9.190;2022-11-15T09:43:35;14.50;99.90
5128;DHT22;2582;48.770;9.190;2022-11-15T09:46:16;14.70;99.90
5128;DHT22;2582;48.770;9.190;2022-11-15T09:51:33;14.70;99.90
5128;DHT22;2582;48.770;9.190;2022-11-15T09:56:36;15.60;99.90
5128;DHT22;2582;48.770;9.190;2022-11-15T09:59:35;16.00;99.90
5128;DHT22;2582;48.770;9.190;2022-11-15T10:02:33;16.40;99.90
5128;DHT22;2582;48.770;9.190;2022-11-15T10:05:02;16.30;99.90
5128;DHT22;2582;48.770;9.190;2022-11-15T10:12:57;17.10;99.90
5128;DHT22;2582;48.770;9.190;2022-11-15T10:15:24;17.20;99.90
5128;DHT22;2582;48.770;9.190;2022-11-15T10:20:40;17.20;99.90
5128;DHT22;2582;48.770;9.190;2022-11-15T10:23:13;17.30;99.90
5128;DHT22;2582;48.770;9.190;2022-11-15T10:25:39;17.30;99.90
5128;DHT22;2582;48.770;9.190;2022-11-15T10:28:17;17.40;99.90
5128;DHT22;2582;48.770;9.190;2022-11-15T10:30:49;17.50;99.90
5128;DHT22;2582;48.770;9.190;2022-11-15T10:33:45;17.50;99.90
5128;DHT22;2582;48.770;9.190;2022-11-15T10:46:41;17.60;99.90
5128;DHT22;2582;48.770;9.190;2022-11-15T10:49:17;17.60;99.90
5128;DHT22;2582;48.770;9.190;2022-11-15T10:54:59;17.20;99.90
5128;DHT22;2582;48.770;9.190;2022-11-15T10:57:30;17.20;99.90
5128;DHT22;2582;48.770;9.190;2022-11-15T11:02:57;17.10;99.90
5128;DHT22;2582;48.770;9.190;2022-11-15T11:05:35;17.10;99.90
5128;DHT22;2582;48.770;9.190;2022-11-15T11:08:21;16.50;99.90
5128;DHT22;2582;48.770;9.190;2022-11-15T11:10:57;16.70;99.90
5128;DHT22;2582;48.770;9.190;2022-11-15T11:18:38;15.90;99.90
5128;DHT22;2582;48.770;9.190;2022-11-15T11:21:13;16.00;99.90
5128;DHT22;2582;48.770;9.190;2022-11-15T11:42:33;16.60;99.90
5128;DHT22;2582;48.770;9.190;2022-11-15T11:45:10;16.90;99.90
5128;DHT22;2582;48.770;9.190;2022-11-15T11:48:07;16.90;99.90
5128;DHT22;2582;48.770;9.190;2022-11-15T11:50:28;16.70;99.90
5128;DHT22;2582;48.770;9.190;2022-11-15T11:53:02;16.70;99.90
5128;DHT22;2582;48.770;9.190;2022-11-15T11:55:37;16.90;99.90
5128;DHT22;2582;48.770;9.190;2022-11-15T11:58:15;17.10;99.90
5128;DHT22;2582;48.770;9.190;2022-11-15T12:01:34;17.40;99.90
5128;DHT22;2582;48.770;9.190;2022-11-15T12:03:42;17.70;99.90
5128;DHT22;2582;48.770;9.190;2022-11-15T12:08:51;18.30;99.90
5128;DHT22;2582;48.770;9.190;2022-11-15T12:13:55;18.40;99.90
5128;DHT22;2582;48.770;9.190;2022-11-15T12:16:28;18.80;99.90
5128;DHT22;2582;48.770;9.190;2022-11-15T12:19:00;19.20;99.90
5128;DHT22;2582;48.770;9.190;2022-11-15T12:24:31;19.00;99.90
5128;DHT22;2582;48.770;9.190;2022-11-15T12:27:08;18.80;99.90
5128;DHT22;2582;48.770;9.190;2022-11-15T12:29:43;18.70;99.90
5128;DHT22;2582;48.770;9.190;2022-11-15T12:34:54;17.60;99.90
5128;DHT22;2582;48.770;9.190;2022-11-15T12:40:27;17.30;99.90
5128;DHT22;2582;48.770;9.190;2022-11-15T12:45:43;17.20;99.90
5128;DHT22;2582;48.770;9.190;2022-11-15T12:50:57;17.20;99.90
5128;DHT22;2582;48.770;9.190;2022-11-15T12:58:56;16.90;99.90
5128;DHT22;2582;48.770;9.190;2022-11-15T13:07:01;16.80;99.90
5128;DHT22;2582;48.770;9.190;2022-11-15T13:11:58;16.50;99.90
5128;DHT22;2582;48.770;9.190;2022-11-15T13:19:47;16.20;99.90
5128;DHT22;2582;48.770;9.190;2022-11-15T13:22:13;16.10;99.90
5128;DHT22;2582;48.770;9.190;2022-11-15T13:24:57;16.30;99.90
5128;DHT22;2582;48.770;9.190;2022-11-15T13:27:24;16.10;99.90
5128;DHT22;2582;48.770;9.190;2022-11-15T13:29:50;16.10;99.90
5128;DHT22;2582;48.770;9.190;2022-11-15T13:32:16;16.00;99.90
5128;DHT22;2582;48.770;9.190;2022-11-15T13:34:47;15.90;99.90
5128;DHT22;2582;48.770;9.190;2022-11-15T13:39:48;15.80;99.90
5128;DHT22;2582;48.770;9.190;2022-11-15T13:42:16;15.70;99.90
5128;DHT22;2582;48.770;9.190;2022-11-15T13:45:01;15.70;99.90
5128;DHT22;2582;48.770;9.190;2022-11-15T13:47:28;15.90;99.90
5128;DHT22;2582;48.770;9.190;2022-11-15T13:49:57;15.90;99.90
5128;DHT22;2582;48.770;9.190;2022-11-15T13:52:28;15.90;99.90
5128;DHT22;2582;48.770;9.190;2022-11-15T13:55:03;15.80;99.90
5128;DHT22;2582;48.770;9.190;2022-11-15T14:03:13;15.90;99.90
5128;DHT22;2582;48.770;9.190;2022-11-15T14:05:41;15.80;99.90
5128;DHT22;2582;48.770;9.190;2022-11-15T14:08:22;15.90;99.90
5128;DHT22;2582;48.770;9.190;2022-11-15T14:11:06;15.80;99.90
5128;DHT22;2582;48.770;9.190;2022-11-15T14:13:32;15.70;99.90
5128;DHT22;2582;48.770;9.190;2022-11-15T14:16:20;15.50;99.90
5128;DHT22;2582;48.770;9.190;2022-11-15T14:18:49;15.50;99.90
5128;DHT22;2582;48.770;9.190;2022-11-15T14:21:15;15.40;99.90
5128;DHT22;2582;48.770;9.190;2022-11-15T14:23:42;15.40;99.90
5128;DHT22;2582;48.770;9.190;2022-11-15T14:26:32;15.20;99.90
5128;DHT22;2582;48.770;9.190;2022-11-15T14:29:23;15.10;99.90
5128;DHT22;2582;48.770;9.190;2022-11-15T14:31:48;15.00;99.90
5128;DHT22;2582;48.770;9.190;2022-11-15T14:34:14;15.10;99.90
5128;DHT22;2582;48.770;9.190;2022-11-15T14:36:40;15.20;99.90
5128;DHT22;2582;48.770;9.190;2022-11-15T14:39:05;15.20;99.90
5128;DHT22;2582;48.770;9.190;2022-11-15T14:41:35;15.00;99.90
5128;DHT22;2582;48.770;9.190;2022-11-15T14:44:03;15.00;99.90
5128;DHT22;2582;48.770;9.190;2022-11-15T14:46:29;14.90;99.90
5128;DHT22;2582;48.770;9.190;2022-11-15T14:48:55;14.90;99.90
5128;DHT22;2582;48.770;9.190;2022-11-15T14:51:20;14.70;99.90
5128;DHT22;2582;48.770;9.190;2022-11-15T14:53:46;14.80;99.90
5128;DHT22;2582;48.770;9.190;2022-11-15T14:56:13;14.80;99.90
5128;DHT22;2582;48.770;9.190;2022-11-15T14:58:38;14.90;99.90
5128;DHT22;2582;48.770;9.190;2022-11-15T15:01:23;14.80;99.90
5128;DHT22;2582;48.770;9.190;2022-11-15T15:03:48;14.90;99.90
5128;DHT22;2582;48.770;9.190;2022-11-15T15:06:16;15.10;99.90
5128;DHT22;2582;48.770;9.190;2022-11-15T15:08:42;14.90;99.90
5128;DHT22;2582;48.770;9.190;2022-11-15T15:11:18;15.10;99.90
5128;DHT22;2582;48.770;9.190;2022-11-15T15:13:46;15.10;99.90
5128;DHT22;2582;48.770;9.190;2022-11-15T15:16:11;15.00;99.90
5128;DHT22;2582;48.770;9.190;2022-11-15T15:18:37;15.00;99.90
5128;DHT22;2582;48.770;9.190;2022-11-15T15:21:04;15.10;99.90
5128;DHT22;2582;48.770;9.190;2022-11-15T15:23:36;14.90;99.90
5128;DHT22;2582;48.770;9.190;2022-11-15T15:26:02;14.70;99.90
5128;DHT22;2582;48.770;9.190;2022-11-15T15:28:28;14.50;99.90
5128;DHT22;2582;48.770;9.190;2022-11-15T15:30:53;14.40;99.90
5128;DHT22;2582;48.770;9.190;2022-11-15T15:33:19;14.30;99.90
5128;DHT22;2582;48.770;9.190;2022-11-15T15:35:44;14.30;99.90
5128;DHT22;2582;48.770;9.190;2022-11-15T15:38:11;14.20;99.90
5128;DHT22;2582;48.770;9.190;2022-11-15T15:40:37;14.10;99.90
5128;DHT22;2582;48.770;9.190;2022-11-15T15:43:03;14.00;99.90
5128;DHT22;2582;48.770;9.190;2022-11-15T15:45:28;14.00;99.90
5128;DHT22;2582;48.770;9.190;2022-11-15T15:47:55;14.00;99.90
5128;DHT22;2582;48.770;9.190;2022-11-15T15:50:22;13.90;99.90
5128;DHT22;2582;48.770;9.190;2022-11-15T15:52:50;14.00;99.90
5128;DHT22;2582;48.770;9.190;2022-11-15T15:55:15;14.00;99.90
5128;DHT22;2582;48.770;9.190;2022-11-15T15:57:41;14.00;99.90
5128;DHT22;2582;48.770;9.190;2022-11-15T16:00:08;13.90;99.90
5128;DHT22;2582;48.770;9.190;2022-11-15T16:02:34;13.90;99.90
5128;DHT22;2582;48.770;9.190;2022-11-15T16:04:59;13.80;99.90
5128;DHT22;2582;48.770;9.190;2022-11-15T16:07:25;13.80;99.90
5128;DHT22;2582;48.770;9.190;2022-11-15T16:09:53;13.80;99.90
5128;DHT22;2582;48.770;9.190;2022-11-15T16:14:53;13.80;99.90
5128;DHT22;2582;48.770;9.190;2022-11-15T16:17:23;13.80;99.90
5128;DHT22;2582;48.770;9.190;2022-11-15T16:19:49;13.90;99.90
5128;DHT22;2582;48.770;9.190;2022-11-15T16:22:15;13.90;99.90
5128;DHT22;2582;48.770;9.190;2022-11-15T16:24:40;13.80;99.90
5128;DHT22;2582;48.770;9.190;2022-11-15T16:27:14;13.90;99.90
5128;DHT22;2582;48.770;9.190;2022-11-15T16:29:40;13.90;99.90
5128;DHT22;2582;48.770;9.190;2022-11-15T16:32:06;13.90;99.90
5128;DHT22;2582;48.770;9.190;2022-11-15T16:34:31;13.90;99.90
5128;DHT22;2582;48.770;9.190;2022-11-15T16:36:57;13.80;99.90
5128;DHT22;2582;48.770;9.190;2022-11-15T16:39:23;13.90;99.90
5128;DHT22;2582;48.770;9.190;2022-11-15T16:41:48;13.90;99.90
5128;DHT22;2582;48.770;9.190;2022-11-15T16:44:14;13.90;99.90
5128;DHT22;2582;48.770;9.190;2022-11-15T16:46:43;13.90;99.90
5128;DHT22;2582;48.770;9.190;2022-11-15T16:49:14;14.00;99.90
5128;DHT22;2582;48.770;9.190;2022-11-15T16:51:46;14.00;99.90
5128;DHT22;2582;48.770;9.190;2022-11-15T16:54:12;14.10;99.90
5128;DHT22;2582;48.770;9.190;2022-11-15T16:56:39;14.20;99.90
5128;DHT22;2582;48.770;9.190;2022-11-15T16:59:04;14.30;99.90
5128;DHT22;2582;48.770;9.190;2022-11-15T17:01:33;14.40;99.90
5128;DHT22;2582;48.770;9.190;2022-11-15T17:04:00;14.40;99.90
5128;DHT22;2582;48.770;9.190;2022-11-15T17:06:39;14.50;99.90
5128;DHT22;2582;48.770;9.190;2022-11-15T17:09:07;14.60;99.90
5128;DHT22;2582;48.770;9.190;2022-11-15T17:11:35;14.50;99.90
5128;DHT22;2582;48.770;9.190;2022-11-15T17:14:01;14.50;99.90
5128;DHT22;2582;48.770;9.190;2022-11-15T17:16:26;14.40;99.90
5128;DHT22;2582;48.770;9.190;2022-11-15T17:18:52;14.40;99.90
5128;DHT22;2582;48.770;9.190;2022-11-15T17:21:19;14.30;99.90
5128;DHT22;2582;48.770;9.190;2022-11-15T17:23:45;14.30;99.90
5128;DHT22;2582;48.770;9.190;2022-11-15T17:26:13;14.20;99.90
5128;DHT22;2582;48.770;9.190;2022-11-15T17:28:39;14.20;99.90
5128;DHT22;2582;48.770;9.190;2022-11-15T17:31:07;14.10;99.90
5128;DHT22;2582;48.770;9.190;2022-11-15T17:33:33;14.20;99.90
5128;DHT22;2582;48.770;9.190;2022-11-15T17:36:01;14.20;99.90
5128;DHT22;2582;48.770;9.190;2022-11-15T17:38:28;14.10;99.90
5128;DHT22;2582;48.770;9.190;2022-11-15T17:43:26;14.10;99.90
5128;DHT22;2582;48.770;9.190;2022-11-15T17:45:52;14.10;99.90
5128;DHT22;2582;48.770;9.190;2022-11-15T17:48:18;14.20;99.90
5128;DHT22;2582;48.770;9.190;2022-11-15T17:50:43;14.10;99.90
5128;DHT22;2582;48.770;9.190;2022-11-15T17:53:09;14.10;99.90
5128;DHT22;2582;48.770;9.190;2022-11-15T17:55:34;14.00;99.90
5128;DHT22;2582;48.770;9.190;2022-11-15T17:58:00;14.00;99.90
5128;DHT22;2582;48.770;9.190;2022-11-15T18:00:25;13.90;99.90
5128;DHT22;2582;48.770;9.190;2022-11-15T18:02:51;13.90;99.90
5128;DHT22;2582;48.770;9.190;2022-11-15T18:05:16;13.80;99.90
5128;DHT22;2582;48.770;9.190;2022-11-15T18:07:42;13.90;99.90
5128;DHT22;2582;48.770;9.190;2022-11-15T18:10:08;13.90;99.90
5128;DHT22;2582;48.770;9.190;2022-11-15T18:12:33;13.90;99.90
5128;DHT22;2582;48.770;9.190;2022-11-15T18:14:59;13.90;99.90
5128;DHT22;2582;48.770;9.190;2022-11-15T18:17:25;13.80;99.90
5128;DHT22;2582;48.770;9.190;2022-11-15T18:19:51;13.80;99.90
5128;DHT22;2582;48.770;9.190;2022-11-15T18:22:16;13.80;99.90
5128;DHT22;2582;48.770;9.190;2022-11-15T18:24:42;13.90;99.90